Time;durP1;ratioP1;P1;durP2;ratioP2;P2;SDS_P1;SDS_P2;PMS_P1;PMS_P2;Temp;Humidity;BMP_temperature;BMP_pressure;BME280_temperature;BME280_humidity;BME280_pressure;Samples;Min_cycle;Max_cycle;Signal;HPM_P1;HPM_P2
2021/12/07 00:00:36;;;;;;;4.00;3.70;;;6.20;92.70;;;;;;951269;149;27274;-79
2021/12/07 00:03:03;;;;;;;3.90;3.50;;;6.20;92.60;;;;;;943748;148;27387;-79
2021/12/07 00:05:29;;;;;;;3.63;3.33;;;6.20;92.60;;;;;;941883;148;27343;-79
2021/12/07 00:07:56;;;;;;;3.53;3.23;;;6.20;92.60;;;;;;954678;149;27500;-79
2021/12/07 00:10:23;;;;;;;3.53;3.23;;;6.20;92.70;;;;;;962004;149;27287;-79
2021/12/07 00:12:49;;;;;;;3.73;3.33;;;6.20;92.80;;;;;;949554;148;27321;-79
2021/12/07 00:15:20;;;;;;;3.73;3.43;;;6.10;92.80;;;;;;948471;149;27323;-79
2021/12/07 00:17:42;;;;;;;3.83;3.30;;;6.10;92.80;;;;;;955361;149;27257;-79
2021/12/07 00:20:09;;;;;;;3.30;3.07;;;6.10;92.80;;;;;;948218;151;27772;-79
2021/12/07 00:22:36;;;;;;;3.60;3.23;;;6.10;92.80;;;;;;931098;149;27471;-79
2021/12/07 00:25:02;;;;;;;3.30;3.00;;;6.10;92.90;;;;;;969560;146;27607;-79
2021/12/07 00:27:29;;;;;;;2.97;2.73;;;6.00;92.80;;;;;;957330;146;27332;-79
2021/12/07 00:29:55;;;;;;;3.40;3.10;;;6.00;92.70;;;;;;955083;150;27296;-79
2021/12/07 00:32:34;;;;;;;3.00;2.80;;;5.90;92.70;;;;;;935149;150;27357;-79
2021/12/07 00:37:26;;;;;;;4.13;3.00;;;5.90;92.80;;;;;;947761;151;27319;-79
2021/12/07 00:39:50;;;;;;;2.90;2.70;;;5.80;92.80;;;;;;935363;151;27346;-79
2021/12/07 00:42:17;;;;;;;3.10;2.83;;;5.70;92.80;;;;;;948414;151;27386;-79
2021/12/07 00:44:43;;;;;;;3.50;3.03;;;5.70;93.00;;;;;;951535;151;27425;-79
2021/12/07 00:47:10;;;;;;;4.00;3.23;;;5.70;93.20;;;;;;938458;151;27323;-79
2021/12/07 00:49:36;;;;;;;3.00;2.67;;;5.60;93.20;;;;;;943300;149;27338;-80
2021/12/07 00:52:03;;;;;;;4.37;2.67;;;5.60;93.40;;;;;;968095;146;27363;-79
2021/12/07 00:54:30;;;;;;;3.83;3.53;;;5.50;93.40;;;;;;933556;151;27522;-79
2021/12/07 00:56:56;;;;;;;3.47;3.17;;;5.50;93.50;;;;;;931396;153;27291;-79
2021/12/07 00:59:23;;;;;;;3.70;2.80;;;5.50;93.50;;;;;;948846;151;27341;-79
2021/12/07 01:01:49;;;;;;;3.13;2.83;;;5.40;93.40;;;;;;934677;150;27434;-79
2021/12/07 01:04:16;;;;;;;3.20;3.00;;;5.40;93.50;;;;;;934775;152;27318;-80
2021/12/07 01:06:58;;;;;;;3.53;3.23;;;5.40;93.60;;;;;;971514;146;27782;-79
2021/12/07 01:09:25;;;;;;;4.20;3.37;;;5.30;93.80;;;;;;977942;146;27278;-79
2021/12/07 01:25:29;;;;;;;6.47;5.23;;;5.10;93.90;;;;;;948236;151;27436;-78
2021/12/07 01:27:54;;;;;;;5.57;4.97;;;5.10;94.00;;;;;;948715;149;27415;-79
2021/12/07 01:30:23;;;;;;;6.37;5.77;;;5.00;94.20;;;;;;961457;149;27266;-79
2021/12/07 01:33:20;;;;;;;5.87;5.13;;;5.00;94.20;;;;;;947889;151;27399;-79
2021/12/07 01:41:03;;;;;;;5.23;4.60;;;4.90;94.60;;;;;;941176;151;27420;-79
2021/12/07 01:59:36;;;;;;;3.57;3.27;;;5.00;95.50;;;;;;948387;151;27361;-79
2021/12/07 02:02:01;;;;;;;3.10;2.87;;;5.00;95.50;;;;;;950804;151;27301;-79
2021/12/07 02:04:28;;;;;;;3.37;3.07;;;5.00;95.60;;;;;;950384;151;27721;-79
2021/12/07 02:06:55;;;;;;;2.70;2.50;;;5.00;95.60;;;;;;950100;151;27400;-79
2021/12/07 02:09:21;;;;;;;2.40;2.20;;;5.00;95.70;;;;;;963183;149;27321;-79
2021/12/07 02:11:50;;;;;;;2.77;2.07;;;5.00;95.70;;;;;;963226;149;27400;-79
2021/12/07 02:14:17;;;;;;;2.30;2.10;;;5.10;96.00;;;;;;961657;149;27275;-79
2021/12/07 02:16:50;;;;;;;1.60;1.50;;;5.10;96.10;;;;;;948458;149;27397;-79
2021/12/07 02:19:16;;;;;;;2.10;2.00;;;5.10;96.30;;;;;;961058;149;27278;-79
2021/12/07 02:21:43;;;;;;;1.47;1.37;;;5.10;96.30;;;;;;947499;147;27392;-79
2021/12/07 02:24:09;;;;;;;1.80;1.70;;;5.20;96.50;;;;;;963961;149;27759;-79
2021/12/07 02:26:36;;;;;;;1.93;1.83;;;5.20;96.60;;;;;;948664;149;27265;-79
2021/12/07 02:29:03;;;;;;;1.30;1.30;;;5.30;96.70;;;;;;947435;151;27871;-79
2021/12/07 02:31:29;;;;;;;1.60;1.50;;;5.30;96.90;;;;;;952445;149;27378;-79
2021/12/07 02:33:56;;;;;;;1.50;1.40;;;5.40;96.90;;;;;;956563;149;27255;-79
2021/12/07 02:36:22;;;;;;;1.63;1.40;;;5.40;97.00;;;;;;947480;150;27322;-80
2021/12/07 02:38:49;;;;;;;1.87;1.77;;;5.50;97.10;;;;;;954673;150;27308;-80
2021/12/07 02:41:15;;;;;;;1.70;1.60;;;5.50;97.10;;;;;;955006;150;27316;-79
2021/12/07 02:43:42;;;;;;;2.00;1.80;;;5.50;97.30;;;;;;951507;150;27300;-80
2021/12/07 02:46:09;;;;;;;4.70;1.90;;;5.60;97.30;;;;;;945187;150;27929;-80
2021/12/07 02:48:35;;;;;;;1.80;1.70;;;5.70;97.40;;;;;;952649;150;27325;-79
2021/12/07 02:51:02;;;;;;;1.80;1.70;;;5.70;97.50;;;;;;946912;150;27371;-80
2021/12/07 02:53:28;;;;;;;1.73;1.63;;;5.80;97.60;;;;;;956596;150;27257;-79
2021/12/07 02:55:55;;;;;;;2.00;1.90;;;5.80;97.80;;;;;;955640;150;27231;-79
2021/12/07 02:58:22;;;;;;;2.10;2.00;;;5.90;97.80;;;;;;940930;150;27804;-80
2021/12/07 03:00:56;;;;;;;1.90;1.80;;;5.90;97.90;;;;;;958398;147;27264;-79
2021/12/07 03:03:16;;;;;;;2.60;1.70;;;6.00;98.00;;;;;;957586;150;27261;-80
2021/12/07 03:05:51;;;;;;;1.90;1.80;;;6.10;98.00;;;;;;955728;150;27423;-79
2021/12/07 03:27:23;;;;;;;2.10;2.00;;;6.40;97.80;;;;;;945361;150;27342;-79
2021/12/07 03:29:50;;;;;;;2.20;2.10;;;6.40;97.80;;;;;;956498;150;27360;-80
2021/12/07 03:32:17;;;;;;;2.23;1.90;;;6.50;97.70;;;;;;958895;150;27311;-79
2021/12/07 03:34:43;;;;;;;1.93;1.83;;;6.50;97.80;;;;;;959300;150;27282;-79
2021/12/07 03:37:09;;;;;;;2.33;2.13;;;6.50;97.80;;;;;;959362;150;27393;-80
2021/12/07 03:39:36;;;;;;;2.20;1.93;;;6.50;97.80;;;;;;959298;150;27241;-80
2021/12/07 03:42:03;;;;;;;2.43;2.23;;;6.60;97.80;;;;;;967860;148;27274;-79
2021/12/07 03:44:30;;;;;;;1.93;1.43;;;6.60;97.80;;;;;;952063;150;27335;-81
2021/12/07 03:46:56;;;;;;;1.87;1.70;;;6.60;97.80;;;;;;951042;151;27300;-79
2021/12/07 03:49:22;;;;;;;2.20;2.00;;;6.60;97.70;;;;;;952097;150;27234;-80
2021/12/07 03:51:49;;;;;;;2.07;1.87;;;6.70;97.70;;;;;;955546;150;27292;-79
2021/12/07 03:54:15;;;;;;;2.53;2.30;;;6.70;97.60;;;;;;956217;150;27304;-80
2021/12/07 03:56:42;;;;;;;2.70;2.07;;;6.70;97.60;;;;;;946943;150;27301;-80
2021/12/07 03:59:09;;;;;;;2.73;2.10;;;6.80;97.80;;;;;;938552;150;27458;-80
2021/12/07 04:01:35;;;;;;;2.40;2.20;;;6.80;97.60;;;;;;949918;150;27749;-80
2021/12/07 04:04:03;;;;;;;2.03;1.93;;;6.80;97.50;;;;;;949712;150;27507;-79
2021/12/07 04:06:28;;;;;;;2.60;1.90;;;6.80;97.50;;;;;;936086;150;27306;-80
2021/12/07 04:08:55;;;;;;;2.30;2.10;;;6.90;97.60;;;;;;955864;150;27470;-80
2021/12/07 04:11:22;;;;;;;2.37;1.83;;;6.90;97.60;;;;;;940687;150;27388;-80
2021/12/07 04:13:48;;;;;;;2.07;1.83;;;6.90;97.50;;;;;;956404;150;27327;-79
2021/12/07 04:16:15;;;;;;;3.20;2.07;;;6.90;97.50;;;;;;947697;150;27362;-80
2021/12/07 04:18:41;;;;;;;2.27;1.97;;;6.90;97.50;;;;;;945452;150;27327;-80
2021/12/07 04:21:08;;;;;;;2.47;1.70;;;7.00;97.40;;;;;;948534;150;27385;-80
2021/12/07 04:23:34;;;;;;;2.07;1.93;;;7.00;97.40;;;;;;958217;150;27297;-79
2021/12/07 04:26:01;;;;;;;2.43;1.80;;;6.90;97.40;;;;;;954433;150;27754;-80
2021/12/07 04:28:28;;;;;;;2.57;1.90;;;7.00;97.40;;;;;;952432;150;27448;-79
2021/12/07 04:30:54;;;;;;;2.43;2.00;;;7.00;97.40;;;;;;943295;150;27305;-79
2021/12/07 04:33:21;;;;;;;2.87;1.90;;;7.00;97.30;;;;;;955609;150;27358;-80
2021/12/07 04:35:47;;;;;;;2.37;1.90;;;7.00;97.60;;;;;;956311;150;27269;-80
2021/12/07 04:38:14;;;;;;;2.80;2.17;;;7.00;97.30;;;;;;953695;147;27290;-80
2021/12/07 04:40:41;;;;;;;3.57;1.73;;;7.10;97.40;;;;;;948639;150;27425;-80
2021/12/07 04:43:07;;;;;;;2.27;2.07;;;7.10;97.30;;;;;;948990;148;27362;-79
2021/12/07 04:59:01;;;;;;;4.80;2.20;;;7.10;97.00;;;;;;946496;150;27510;-80
2021/12/07 05:01:28;;;;;;;2.93;1.87;;;7.10;97.00;;;;;;944188;150;27307;-79
2021/12/07 05:03:58;;;;;;;4.47;1.70;;;7.20;97.00;;;;;;947666;150;27337;-80
2021/12/07 05:06:26;;;;;;;2.70;1.50;;;7.20;97.00;;;;;;934355;153;27329;-79
2021/12/07 05:08:55;;;;;;;2.23;1.50;;;7.20;97.00;;;;;;945171;150;27328;-79
2021/12/07 05:14:19;;;;;;;4.53;1.77;;;7.20;96.90;;;;;;947502;151;27343;-79
2021/12/07 05:17:21;;;;;;;4.40;1.87;;;7.20;96.80;;;;;;948708;150;27383;-79
2021/12/07 05:19:04;;;;;;;1.70;1.60;;;7.20;96.80;;;;;;934247;150;27300;-79
2021/12/07 05:24:15;;;;;;;2.20;1.80;;;7.30;96.80;;;;;;942880;152;27907;-81
2021/12/07 05:37:46;;;;;;;2.83;1.53;;;7.30;96.70;;;;;;916460;156;27519;-79
2021/12/07 05:40:06;;;;;;;3.03;1.53;;;7.30;96.80;;;;;;955058;150;27256;-79
2021/12/07 05:42:33;;;;;;;2.40;1.80;;;7.30;96.70;;;;;;953619;150;27381;-80
2021/12/07 05:45:00;;;;;;;2.93;1.60;;;7.30;96.70;;;;;;958166;150;27360;-81
2021/12/07 05:47:26;;;;;;;3.40;1.87;;;7.30;96.60;;;;;;937527;150;27439;-79
2021/12/07 05:49:53;;;;;;;3.40;1.73;;;7.30;96.60;;;;;;954000;150;27308;-79
2021/12/07 05:52:19;;;;;;;1.40;1.30;;;7.40;96.90;;;;;;959283;149;27280;-79
2021/12/07 05:54:46;;;;;;;2.07;1.50;;;7.30;96.50;;;;;;958374;150;27698;-79
2021/12/07 05:57:13;;;;;;;1.60;1.50;;;7.30;96.50;;;;;;956427;147;27379;-80
2021/12/07 05:59:39;;;;;;;2.83;1.50;;;7.30;96.50;;;;;;953671;150;27407;-79
2021/12/07 06:02:06;;;;;;;1.87;1.37;;;7.40;96.50;;;;;;942758;150;27305;-79
2021/12/07 06:04:32;;;;;;;5.20;1.73;;;7.40;96.50;;;;;;946179;147;27354;-79
2021/12/07 06:06:59;;;;;;;2.50;1.40;;;7.40;96.40;;;;;;954067;148;27294;-79
2021/12/07 06:09:25;;;;;;;3.77;1.50;;;7.40;96.40;;;;;;939768;150;27365;-79
2021/12/07 06:11:53;;;;;;;2.63;1.40;;;7.40;96.30;;;;;;953375;150;27308;-80
2021/12/07 06:14:20;;;;;;;2.97;1.57;;;7.40;96.30;;;;;;949221;150;27324;-79
2021/12/07 06:16:45;;;;;;;2.27;1.80;;;7.40;96.30;;;;;;957777;150;27297;-79
2021/12/07 06:19:12;;;;;;;2.63;1.60;;;7.40;96.30;;;;;;953655;150;27360;-79
2021/12/07 06:21:38;;;;;;;1.67;1.07;;;7.40;96.20;;;;;;951279;150;27404;-79
2021/12/07 06:24:05;;;;;;;2.60;1.43;;;7.40;96.10;;;;;;954264;147;27292;-80
2021/12/07 06:26:31;;;;;;;1.93;1.33;;;7.40;96.00;;;;;;946848;147;27372;-80
2021/12/07 06:28:58;;;;;;;3.03;1.40;;;7.40;95.90;;;;;;955819;150;27391;-79
2021/12/07 06:31:25;;;;;;;1.40;1.23;;;7.40;95.90;;;;;;955395;150;27280;-79
2021/12/07 06:33:51;;;;;;;1.67;1.43;;;7.40;95.90;;;;;;945306;150;27320;-79
2021/12/07 06:36:18;;;;;;;3.37;1.47;;;7.40;95.80;;;;;;957906;150;27281;-79
2021/12/07 06:38:47;;;;;;;2.97;1.83;;;7.40;95.80;;;;;;951299;150;27379;-79
2021/12/07 06:41:11;;;;;;;4.37;1.57;;;7.40;95.70;;;;;;952536;150;27380;-79
2021/12/07 06:43:38;;;;;;;1.40;1.30;;;7.40;95.60;;;;;;951085;151;27314;-79
2021/12/07 06:46:04;;;;;;;3.10;1.47;;;7.40;95.50;;;;;;958161;150;27385;-79
2021/12/07 06:48:31;;;;;;;1.43;1.33;;;7.40;95.40;;;;;;955604;149;27364;-79
2021/12/07 06:50:57;;;;;;;4.70;1.70;;;7.40;95.40;;;;;;952326;150;27226;-79
2021/12/07 06:53:24;;;;;;;2.80;1.50;;;7.40;95.30;;;;;;953737;150;27374;-80
2021/12/07 06:55:50;;;;;;;3.97;1.83;;;7.30;95.30;;;;;;948673;150;27339;-80
2021/12/07 06:58:17;;;;;;;1.70;1.30;;;7.30;95.40;;;;;;949704;150;27298;-79
2021/12/07 07:00:44;;;;;;;3.33;1.80;;;7.30;95.40;;;;;;954425;150;27788;-80
2021/12/07 07:03:10;;;;;;;3.03;1.67;;;7.30;95.50;;;;;;956377;150;27298;-80
2021/12/07 07:05:37;;;;;;;2.87;1.70;;;7.30;95.60;;;;;;942876;152;27399;-79
2021/12/07 07:08:03;;;;;;;2.77;1.90;;;7.30;95.60;;;;;;945818;150;27353;-79
2021/12/07 07:10:30;;;;;;;2.27;1.47;;;7.30;95.70;;;;;;959014;150;27396;-79
2021/12/07 07:12:57;;;;;;;4.00;1.80;;;7.30;95.70;;;;;;952253;150;27442;-79
2021/12/07 07:15:23;;;;;;;3.50;1.63;;;7.30;95.70;;;;;;943722;150;27279;-79
2021/12/07 07:17:50;;;;;;;2.67;1.47;;;7.30;95.70;;;;;;953762;150;27279;-79
2021/12/07 07:20:17;;;;;;;1.30;1.13;;;7.40;95.70;;;;;;952955;150;27381;-79
2021/12/07 07:22:43;;;;;;;3.23;2.17;;;7.30;95.70;;;;;;959193;147;27391;-79
2021/12/07 07:25:09;;;;;;;2.47;1.53;;;7.40;95.70;;;;;;957562;147;27332;-79
2021/12/07 07:27:36;;;;;;;2.47;1.60;;;7.40;96.00;;;;;;949900;149;27278;-79
2021/12/07 07:30:03;;;;;;;2.97;1.67;;;7.40;95.70;;;;;;948046;150;27396;-80
2021/12/07 07:32:29;;;;;;;2.33;1.60;;;7.50;95.70;;;;;;953233;150;27308;-79
2021/12/07 07:34:56;;;;;;;2.40;1.40;;;7.50;95.60;;;;;;957601;150;27257;-79
2021/12/07 07:37:22;;;;;;;2.80;1.53;;;7.50;95.50;;;;;;955787;150;27272;-79
2021/12/07 07:39:49;;;;;;;4.20;2.00;;;7.50;95.50;;;;;;955550;148;27347;-79
2021/12/07 07:42:16;;;;;;;2.13;1.73;;;7.50;95.50;;;;;;952739;149;27301;-79
2021/12/07 07:44:42;;;;;;;3.40;1.70;;;7.60;95.50;;;;;;946103;151;27285;-79
2021/12/07 07:47:09;;;;;;;3.33;1.90;;;7.60;95.40;;;;;;953573;150;27361;-79
2021/12/07 07:49:35;;;;;;;4.43;2.20;;;7.60;95.40;;;;;;956451;150;27329;-79
2021/12/07 07:52:02;;;;;;;2.80;1.77;;;7.60;95.30;;;;;;952933;150;27329;-80
2021/12/07 07:54:28;;;;;;;4.20;1.80;;;7.60;95.20;;;;;;956390;150;27816;-79
2021/12/07 07:56:55;;;;;;;4.93;1.73;;;7.60;95.20;;;;;;957429;150;27268;-79
2021/12/07 07:59:22;;;;;;;3.13;1.80;;;7.70;95.20;;;;;;955760;147;27339;-79
2021/12/07 08:01:48;;;;;;;2.63;1.80;;;7.70;95.10;;;;;;952097;150;27434;-79
2021/12/07 08:04:15;;;;;;;3.00;1.30;;;7.70;95.00;;;;;;954540;150;27371;-79
2021/12/07 08:06:41;;;;;;;2.33;1.27;;;7.70;95.00;;;;;;943665;150;27732;-79
2021/12/07 08:09:08;;;;;;;4.27;1.73;;;7.70;95.00;;;;;;957587;150;27414;-79
2021/12/07 08:11:35;;;;;;;4.40;2.10;;;7.70;95.00;;;;;;950517;150;27327;-80
2021/12/07 08:14:01;;;;;;;2.70;1.90;;;7.80;95.00;;;;;;952994;150;27270;-79
2021/12/07 08:16:28;;;;;;;2.40;1.77;;;7.80;95.10;;;;;;943044;150;27308;-81
2021/12/07 08:18:54;;;;;;;3.13;1.70;;;7.80;95.00;;;;;;951417;150;27343;-79
2021/12/07 08:21:21;;;;;;;2.13;1.47;;;7.80;95.10;;;;;;954548;148;27312;-80
2021/12/07 08:23:47;;;;;;;1.47;1.33;;;7.90;95.00;;;;;;959229;149;27326;-79
2021/12/07 08:26:14;;;;;;;1.77;1.60;;;7.90;95.10;;;;;;959043;148;27292;-79
2021/12/07 08:28:41;;;;;;;4.47;2.00;;;7.90;95.10;;;;;;947026;148;27434;-80
2021/12/07 08:31:07;;;;;;;4.10;2.10;;;8.00;95.10;;;;;;952834;150;27268;-80
2021/12/07 08:33:35;;;;;;;2.10;1.47;;;8.00;95.20;;;;;;954782;147;27359;-79
2021/12/07 08:36:02;;;;;;;4.93;1.57;;;8.10;95.20;;;;;;956061;150;27248;-79
2021/12/07 08:38:28;;;;;;;1.97;1.33;;;8.10;95.10;;;;;;948883;150;27285;-79
2021/12/07 08:40:55;;;;;;;2.87;1.70;;;8.20;95.10;;;;;;947291;150;27404;-80
2021/12/07 08:43:21;;;;;;;3.90;2.00;;;8.30;95.10;;;;;;957970;150;27401;-79
2021/12/07 08:45:48;;;;;;;3.57;1.43;;;8.30;95.00;;;;;;946414;150;27356;-80
2021/12/07 08:48:15;;;;;;;3.73;1.70;;;8.40;94.90;;;;;;955003;150;27379;-79
2021/12/07 08:50:42;;;;;;;6.70;1.77;;;8.50;94.80;;;;;;952566;150;27413;-80
2021/12/07 08:53:11;;;;;;;2.57;1.60;;;8.50;94.70;;;;;;953409;150;27317;-79
2021/12/07 09:00:52;;;;;;;1.50;1.33;;;8.60;94.30;;;;;;931880;150;27338;-80
2021/12/07 09:03:18;;;;;;;3.17;1.80;;;8.70;94.10;;;;;;935249;146;27809;-79
2021/12/07 09:05:45;;;;;;;3.73;1.77;;;8.70;93.90;;;;;;943678;150;27445;-79
2021/12/07 09:08:11;;;;;;;3.50;1.97;;;8.70;93.80;;;;;;940403;147;27417;-80
2021/12/07 09:10:38;;;;;;;4.57;2.03;;;8.70;93.70;;;;;;945279;150;27310;-79
2021/12/07 09:13:04;;;;;;;3.30;1.60;;;8.70;93.70;;;;;;950095;149;27375;-80
2021/12/07 09:15:31;;;;;;;3.33;1.70;;;8.80;93.60;;;;;;952617;149;27747;-81
2021/12/07 09:17:57;;;;;;;1.70;1.60;;;8.80;93.60;;;;;;956534;150;27935;-80
2021/12/07 09:20:24;;;;;;;3.60;1.87;;;8.80;93.40;;;;;;954229;150;27323;-80
2021/12/07 09:22:51;;;;;;;3.27;1.80;;;8.80;93.30;;;;;;950557;149;27238;-79
2021/12/07 09:25:18;;;;;;;5.13;1.87;;;8.80;93.20;;;;;;957960;150;27394;-79
2021/12/07 09:27:44;;;;;;;2.67;1.60;;;8.80;93.20;;;;;;955548;150;27650;-80
2021/12/07 09:30:10;;;;;;;1.90;1.60;;;8.90;93.10;;;;;;953504;150;27335;-80
2021/12/07 09:32:37;;;;;;;4.30;2.43;;;8.80;92.90;;;;;;952811;150;27314;-80
2021/12/07 09:35:04;;;;;;;4.00;2.27;;;8.90;92.70;;;;;;952715;150;27322;-79
2021/12/07 09:37:30;;;;;;;3.60;2.17;;;8.90;92.70;;;;;;956186;147;27290;-79
2021/12/07 09:39:57;;;;;;;3.30;1.87;;;8.90;92.80;;;;;;957759;150;27283;-79
2021/12/07 09:42:23;;;;;;;3.97;1.77;;;8.90;92.80;;;;;;941408;149;27369;-79
2021/12/07 09:44:50;;;;;;;2.07;1.73;;;8.90;93.00;;;;;;956635;149;27266;-79
2021/12/07 09:47:16;;;;;;;3.70;1.63;;;9.00;93.10;;;;;;956821;150;27342;-79
2021/12/07 09:49:43;;;;;;;3.67;1.57;;;9.00;93.30;;;;;;956797;147;27297;-79
2021/12/07 09:52:10;;;;;;;3.37;1.50;;;9.10;93.40;;;;;;958591;148;27295;-79
2021/12/07 09:54:36;;;;;;;2.80;1.90;;;9.20;93.30;;;;;;944566;147;27258;-79
2021/12/07 09:57:04;;;;;;;2.67;1.50;;;9.30;93.00;;;;;;947138;150;27305;-79
2021/12/07 09:59:29;;;;;;;3.60;1.67;;;9.30;92.60;;;;;;956240;150;27383;-79
2021/12/07 10:01:56;;;;;;;2.37;1.50;;;9.40;92.30;;;;;;956298;150;27239;-79
2021/12/07 10:04:27;;;;;;;2.83;1.50;;;9.40;92.10;;;;;;957770;150;27229;-79
2021/12/07 10:06:49;;;;;;;2.83;1.40;;;9.40;91.90;;;;;;950505;150;27435;-80
2021/12/07 10:09:16;;;;;;;3.23;1.80;;;9.40;91.90;;;;;;942997;150;27460;-80
2021/12/07 10:11:42;;;;;;;1.77;1.27;;;9.50;91.80;;;;;;942722;152;27278;-79
2021/12/07 10:14:09;;;;;;;3.77;1.50;;;9.50;91.70;;;;;;946653;150;27383;-80
2021/12/07 10:16:35;;;;;;;2.50;1.40;;;9.50;91.70;;;;;;951718;150;27308;-79
2021/12/07 10:19:02;;;;;;;2.93;2.00;;;9.50;91.70;;;;;;950727;149;27335;-80
2021/12/07 10:21:30;;;;;;;4.33;1.60;;;9.50;91.60;;;;;;946725;150;27302;-79
2021/12/07 10:23:55;;;;;;;2.57;1.60;;;9.50;91.50;;;;;;942586;152;27996;-80
2021/12/07 10:26:25;;;;;;;4.47;1.50;;;9.60;91.50;;;;;;942219;152;27302;-79
2021/12/07 10:29:09;;;;;;;2.07;1.43;;;9.60;91.30;;;;;;946107;150;27402;-79
2021/12/07 10:31:42;;;;;;;2.63;1.70;;;9.70;91.20;;;;;;949415;147;27281;-80
2021/12/07 10:34:11;;;;;;;4.00;1.93;;;9.70;91.00;;;;;;955425;150;27381;-80
2021/12/07 10:36:41;;;;;;;2.83;1.80;;;9.60;90.90;;;;;;957689;150;27398;-80
2021/12/07 10:39:10;;;;;;;3.27;1.87;;;9.60;90.80;;;;;;957866;148;27376;-80
2021/12/07 10:41:42;;;;;;;6.77;2.00;;;9.60;90.70;;;;;;958382;147;27381;-80
2021/12/07 10:44:12;;;;;;;4.90;2.20;;;9.60;90.60;;;;;;959118;148;27353;-80
2021/12/07 10:46:48;;;;;;;5.03;1.87;;;9.60;90.60;;;;;;944670;148;27356;-79
2021/12/07 10:49:19;;;;;;;3.63;1.80;;;9.60;90.60;;;;;;938298;150;27428;-80
2021/12/07 10:51:57;;;;;;;4.17;1.80;;;9.60;90.50;;;;;;944967;150;28726;-80
2021/12/07 10:54:24;;;;;;;6.47;1.80;;;9.60;90.60;;;;;;945416;150;27377;-80
2021/12/07 10:56:50;;;;;;;4.10;1.60;;;9.60;90.40;;;;;;939876;150;27348;-81
2021/12/07 10:59:17;;;;;;;3.37;1.70;;;9.60;90.50;;;;;;948383;148;27304;-79
2021/12/07 11:01:44;;;;;;;3.40;1.83;;;9.60;90.50;;;;;;953101;148;27291;-80
2021/12/07 11:04:33;;;;;;;3.47;1.73;;;9.60;90.60;;;;;;946424;151;27443;-80
2021/12/07 11:07:08;;;;;;;5.47;2.10;;;9.70;90.50;;;;;;937925;153;27275;-79
2021/12/07 11:09:37;;;;;;;4.57;2.07;;;9.80;90.50;;;;;;944959;151;27474;-80
2021/12/07 11:12:09;;;;;;;4.27;1.70;;;9.80;90.40;;;;;;951121;147;27362;-81
2021/12/07 11:14:47;;;;;;;3.07;1.73;;;9.80;90.30;;;;;;940672;149;27337;-79
2021/12/07 11:17:08;;;;;;;3.60;1.50;;;9.80;90.20;;;;;;945856;151;27313;-80
2021/12/07 11:19:36;;;;;;;6.47;1.50;;;9.90;90.00;;;;;;964897;148;27323;-80
2021/12/07 11:22:01;;;;;;;3.60;1.53;;;9.90;89.80;;;;;;943532;151;27311;-80
2021/12/07 11:24:37;;;;;;;4.17;1.40;;;9.90;89.60;;;;;;932524;154;27323;-81
2021/12/07 11:29:57;;;;;;;4.27;1.73;;;9.90;89.20;;;;;;935564;153;27845;-80
2021/12/07 11:32:24;;;;;;;2.90;1.63;;;9.90;88.20;;;;;;935324;149;27313;-80
2021/12/07 11:34:50;;;;;;;3.23;1.63;;;9.90;88.60;;;;;;940064;151;27420;-80
2021/12/07 11:37:17;;;;;;;5.47;1.67;;;9.90;88.20;;;;;;938294;151;27334;-80
2021/12/07 11:39:51;;;;;;;3.13;1.33;;;9.90;88.20;;;;;;955778;148;27438;-80
2021/12/07 11:42:18;;;;;;;3.47;1.70;;;9.80;87.90;;;;;;947163;149;27789;-81
2021/12/07 11:44:54;;;;;;;3.30;2.13;;;9.80;87.80;;;;;;958937;148;27390;-81
2021/12/07 11:47:27;;;;;;;3.63;1.80;;;9.70;87.50;;;;;;926703;149;27368;-80
2021/12/07 11:49:53;;;;;;;4.37;1.73;;;9.70;87.50;;;;;;953293;146;27284;-81
2021/12/07 11:52:19;;;;;;;3.63;1.57;;;9.60;87.40;;;;;;942396;149;27320;-81
2021/12/07 11:54:46;;;;;;;1.93;1.60;;;9.60;87.30;;;;;;935271;150;27851;-81
2021/12/07 11:57:13;;;;;;;5.93;2.00;;;9.60;87.40;;;;;;954094;150;27427;-81
2021/12/07 11:59:39;;;;;;;5.57;1.60;;;9.60;87.60;;;;;;946280;148;27396;-81
2021/12/07 12:02:06;;;;;;;4.17;1.70;;;9.50;87.60;;;;;;949683;149;27335;-82
2021/12/07 12:04:33;;;;;;;2.13;1.60;;;9.50;87.50;;;;;;951259;146;27299;-81
2021/12/07 12:06:59;;;;;;;5.73;1.70;;;9.50;87.50;;;;;;957555;146;27314;-80
2021/12/07 12:09:25;;;;;;;3.27;1.63;;;9.50;87.50;;;;;;954587;146;27339;-81
2021/12/07 12:11:52;;;;;;;6.30;1.97;;;9.40;87.30;;;;;;956663;148;27414;-82
2021/12/07 12:14:30;;;;;;;4.37;1.80;;;9.50;87.40;;;;;;949646;148;27340;-82
2021/12/07 12:17:09;;;;;;;4.10;1.70;;;9.50;87.20;;;;;;940334;150;27384;-81
2021/12/07 12:19:51;;;;;;;4.30;1.93;;;9.40;87.00;;;;;;952051;148;27323;-82
2021/12/07 12:22:26;;;;;;;5.17;1.70;;;9.40;86.80;;;;;;920267;151;27965;-81
2021/12/07 12:24:55;;;;;;;3.30;1.73;;;9.40;86.60;;;;;;950290;148;27337;-81
2021/12/07 12:27:21;;;;;;;1.47;1.10;;;9.40;86.50;;;;;;947895;148;27346;-81
2021/12/07 12:29:48;;;;;;;2.83;1.23;;;9.40;86.20;;;;;;939763;150;27391;-81
2021/12/07 12:32:14;;;;;;;5.40;1.87;;;9.40;85.90;;;;;;960452;146;27298;-81
2021/12/07 12:34:47;;;;;;;5.47;1.90;;;9.30;85.80;;;;;;956402;147;27311;-81
2021/12/07 12:37:19;;;;;;;3.73;1.77;;;9.30;85.80;;;;;;951818;148;27365;-81
2021/12/07 12:39:57;;;;;;;3.83;1.70;;;9.30;85.90;;;;;;962584;149;27430;-81
2021/12/07 12:42:29;;;;;;;4.00;1.60;;;9.30;86.00;;;;;;968037;147;27348;-81
2021/12/07 12:44:56;;;;;;;3.10;1.67;;;9.30;86.20;;;;;;951923;148;27340;-81
2021/12/07 12:47:23;;;;;;;4.67;1.80;;;9.30;85.90;;;;;;943878;149;27408;-80
2021/12/07 12:49:49;;;;;;;3.63;1.57;;;9.30;85.80;;;;;;941877;149;27427;-81
2021/12/07 12:52:16;;;;;;;4.47;1.53;;;9.30;85.30;;;;;;962455;146;27403;-80
2021/12/07 12:54:45;;;;;;;3.60;1.60;;;9.30;84.80;;;;;;951323;148;27400;-80
2021/12/07 12:57:15;;;;;;;2.27;1.30;;;9.30;84.50;;;;;;941524;149;27364;-82
2021/12/07 12:59:41;;;;;;;2.10;1.70;;;9.30;84.30;;;;;;955933;146;27346;-81
2021/12/07 13:02:08;;;;;;;2.67;1.33;;;9.30;85.20;;;;;;942614;148;27372;-80
2021/12/07 13:04:34;;;;;;;1.67;1.33;;;9.30;84.30;;;;;;956261;146;27275;-80
2021/12/07 13:09:42;;;;;;;2.20;1.77;;;9.20;83.90;;;;;;937297;150;27976;-81
2021/12/07 13:12:11;;;;;;;3.00;1.70;;;9.20;83.30;;;;;;950840;146;27373;-80
2021/12/07 13:14:44;;;;;;;2.87;1.27;;;9.20;82.30;;;;;;957048;146;27426;-80
2021/12/07 13:17:26;;;;;;;3.23;1.50;;;9.20;82.10;;;;;;953274;146;27321;-81
2021/12/07 13:20:11;;;;;;;4.57;1.50;;;9.10;81.80;;;;;;967135;146;27326;-80
2021/12/07 13:22:53;;;;;;;5.03;1.20;;;9.10;81.70;;;;;;956152;146;27381;-80
2021/12/07 13:25:31;;;;;;;3.27;1.43;;;9.00;82.00;;;;;;946228;147;27415;-80
2021/12/07 13:28:10;;;;;;;3.03;1.40;;;9.00;82.20;;;;;;954912;146;27902;-81
2021/12/07 13:30:36;;;;;;;3.10;1.80;;;9.00;82.40;;;;;;959542;146;27433;-80
2021/12/07 13:33:02;;;;;;;3.87;1.97;;;8.90;82.40;;;;;;945307;148;27308;-80
2021/12/07 13:35:32;;;;;;;1.40;1.10;;;8.90;82.40;;;;;;947176;151;27317;-80
2021/12/07 13:37:58;;;;;;;3.40;1.60;;;8.90;82.50;;;;;;948297;151;27287;-80
2021/12/07 13:40:25;;;;;;;6.77;1.57;;;8.90;82.70;;;;;;945787;151;27329;-80
2021/12/07 13:42:52;;;;;;;3.87;1.70;;;8.90;83.10;;;;;;951087;148;27340;-79
2021/12/07 13:45:19;;;;;;;3.00;1.53;;;9.00;83.20;;;;;;946035;151;27338;-79
2021/12/07 13:47:45;;;;;;;5.13;1.40;;;9.00;83.30;;;;;;950501;146;27730;-79
2021/12/07 13:50:17;;;;;;;2.97;1.30;;;9.10;83.20;;;;;;931054;149;27351;-79
2021/12/07 13:52:43;;;;;;;4.43;2.10;;;9.10;82.80;;;;;;935256;150;27367;-80
2021/12/07 13:55:10;;;;;;;3.00;1.93;;;9.10;82.50;;;;;;940444;149;27396;-80
2021/12/07 13:57:36;;;;;;;5.60;2.10;;;9.20;82.60;;;;;;945540;149;27863;-80
2021/12/07 14:00:15;;;;;;;6.30;2.70;;;9.20;82.60;;;;;;939311;149;27322;-79
2021/12/07 14:02:41;;;;;;;5.57;2.03;;;9.20;82.50;;;;;;949250;146;27384;-80
2021/12/07 14:05:14;;;;;;;4.77;1.93;;;9.30;82.50;;;;;;944040;149;27300;-80
2021/12/07 14:07:40;;;;;;;3.50;2.00;;;9.30;82.50;;;;;;939543;148;27316;-80
2021/12/07 14:10:09;;;;;;;4.13;1.70;;;9.30;82.30;;;;;;942521;148;27327;-80
2021/12/07 14:12:36;;;;;;;5.20;1.83;;;9.40;82.30;;;;;;939633;151;27399;-80
2021/12/07 14:15:18;;;;;;;3.40;1.60;;;9.40;82.10;;;;;;954714;146;27296;-80
2021/12/07 14:17:44;;;;;;;5.77;1.80;;;9.40;82.00;;;;;;943532;149;27331;-80
2021/12/07 14:20:11;;;;;;;2.83;1.60;;;9.50;81.90;;;;;;935862;150;27288;-80
2021/12/07 14:22:37;;;;;;;2.87;1.53;;;9.50;81.90;;;;;;961599;146;27309;-81
2021/12/07 14:25:04;;;;;;;2.20;1.40;;;9.50;81.80;;;;;;954476;147;27409;-80
2021/12/07 14:27:31;;;;;;;3.73;2.13;;;9.50;81.80;;;;;;958949;146;27313;-80
2021/12/07 14:29:57;;;;;;;4.90;2.17;;;9.50;81.70;;;;;;960844;146;27360;-79
2021/12/07 14:32:24;;;;;;;2.87;1.40;;;9.60;81.20;;;;;;954404;150;27286;-79
2021/12/07 14:34:50;;;;;;;5.03;1.90;;;9.60;80.40;;;;;;957914;146;27413;-79
2021/12/07 14:37:17;;;;;;;7.07;1.80;;;9.50;80.00;;;;;;934389;151;27431;-79